Time;durP1;ratioP1;P1;durP2;ratioP2;P2;SDS_P1;SDS_P2;PMS_P1;PMS_P2;Temp;Humidity;BMP_temperature;BMP_pressure;BME280_temperature;BME280_humidity;BME280_pressure;Samples;Min_cycle;Max_cycle;Signal;HPM_P1;HPM_P2
2021/12/28 00:00:27;;;;;;;11.73;7.35;;;12.70;99.90;;;;;;5089644;28;20052;-64
2021/12/28 00:02:56;;;;;;;13.18;7.20;;;12.70;99.90;;;;;;5056516;28;20390;-64
2021/12/28 00:05:26;;;;;;;12.52;9.43;;;12.70;99.90;;;;;;5109116;28;20043;-65
2021/12/28 00:07:54;;;;;;;9.88;6.65;;;12.70;99.90;;;;;;5087795;28;20052;-64
2021/12/28 00:10:21;;;;;;;10.60;7.18;;;12.70;99.90;;;;;;5057423;28;20068;-64
2021/12/28 00:12:50;;;;;;;9.55;7.10;;;12.70;99.90;;;;;;5071007;28;20047;-64
2021/12/28 00:18:03;;;;;;;10.80;7.90;;;12.60;99.90;;;;;;5105353;28;20043;-63
2021/12/28 00:20:40;;;;;;;10.73;7.72;;;12.60;99.90;;;;;;5099638;28;20131;-64
2021/12/28 00:23:13;;;;;;;10.13;7.05;;;12.60;99.90;;;;;;5078491;28;20048;-64
2021/12/28 00:25:41;;;;;;;8.65;6.88;;;12.60;99.90;;;;;;5123004;28;20088;-64
2021/12/28 00:28:09;;;;;;;8.18;6.45;;;12.60;99.90;;;;;;5100083;28;20397;-63
2021/12/28 00:30:37;;;;;;;7.82;6.25;;;12.60;99.90;;;;;;5068854;28;20051;-64
2021/12/28 00:33:06;;;;;;;10.18;7.60;;;12.50;99.90;;;;;;5102512;28;20031;-65
2021/12/28 00:35:37;;;;;;;7.47;6.70;;;12.40;99.90;;;;;;5105854;28;20062;-64
2021/12/28 00:38:05;;;;;;;15.15;11.32;;;12.40;99.90;;;;;;5091094;28;20038;-64
2021/12/28 00:40:34;;;;;;;9.70;8.23;;;12.50;99.90;;;;;;5104569;28;20092;-64
2021/12/28 00:43:03;;;;;;;10.40;8.30;;;12.50;99.90;;;;;;5092621;28;20074;-63
2021/12/28 00:45:31;;;;;;;9.55;7.22;;;12.40;99.90;;;;;;5073795;28;20050;-64
2021/12/28 00:47:58;;;;;;;9.40;7.80;;;12.40;99.90;;;;;;5095893;28;20581;-64
2021/12/28 00:50:27;;;;;;;8.43;7.15;;;12.30;99.90;;;;;;5074035;28;20051;-63
2021/12/28 00:52:55;;;;;;;9.93;6.72;;;12.30;99.90;;;;;;5101387;28;20043;-65
2021/12/28 00:55:24;;;;;;;9.55;7.30;;;12.40;99.90;;;;;;5059194;28;20052;-63
2021/12/28 00:57:53;;;;;;;7.50;6.13;;;12.30;99.90;;;;;;5120075;28;20137;-64
2021/12/28 01:00:26;;;;;;;8.73;6.13;;;12.30;99.90;;;;;;5106817;28;20040;-64
2021/12/28 01:02:56;;;;;;;10.63;6.90;;;12.30;99.90;;;;;;5115520;28;20084;-65
2021/12/28 01:05:24;;;;;;;8.75;7.65;;;12.20;99.90;;;;;;5110098;28;20494;-64
2021/12/28 01:07:53;;;;;;;9.52;7.53;;;12.20;99.90;;;;;;5104864;28;20034;-64
2021/12/28 01:10:24;;;;;;;11.00;8.80;;;12.20;99.90;;;;;;5085395;28;20036;-64
2021/12/28 01:12:52;;;;;;;11.02;8.93;;;12.10;99.90;;;;;;5090279;28;20089;-64
2021/12/28 01:15:21;;;;;;;14.88;9.55;;;12.10;99.90;;;;;;5102603;28;20040;-64
2021/12/28 01:17:49;;;;;;;12.65;8.98;;;12.10;99.90;;;;;;5092158;28;20389;-64
2021/12/28 01:20:17;;;;;;;12.43;8.48;;;12.10;99.90;;;;;;5088531;28;20544;-64
2021/12/28 01:22:46;;;;;;;13.15;9.95;;;12.10;99.90;;;;;;5090121;28;20055;-64
2021/12/28 01:25:15;;;;;;;14.98;9.38;;;12.10;99.90;;;;;;5091383;28;20039;-63
2021/12/28 01:27:44;;;;;;;14.13;8.02;;;12.10;99.90;;;;;;5074293;27;20051;-64
2021/12/28 01:30:14;;;;;;;12.82;7.75;;;12.10;99.90;;;;;;5089680;28;20055;-64
2021/12/28 01:32:42;;;;;;;10.88;7.85;;;12.20;99.90;;;;;;5079260;28;20045;-64
2021/12/28 01:35:13;;;;;;;10.60;7.05;;;12.20;99.90;;;;;;5107693;28;20043;-64
2021/12/28 01:37:41;;;;;;;10.43;7.80;;;12.20;99.90;;;;;;5089460;28;20046;-64
2021/12/28 01:40:12;;;;;;;12.63;7.63;;;12.30;99.90;;;;;;5111728;28;20070;-64
2021/12/28 01:43:07;;;;;;;11.65;8.07;;;12.30;99.90;;;;;;5127763;27;20481;-64
2021/12/28 01:45:56;;;;;;;11.85;8.63;;;12.20;99.90;;;;;;5089369;28;20040;-64
2021/12/28 01:48:33;;;;;;;9.80;8.07;;;12.20;99.90;;;;;;5086337;28;20036;-64
2021/12/28 01:51:04;;;;;;;10.93;6.63;;;12.10;99.90;;;;;;5089778;28;20044;-64
2021/12/28 01:53:33;;;;;;;14.02;7.93;;;12.10;99.90;;;;;;5101074;28;20037;-64
2021/12/28 01:56:04;;;;;;;9.15;7.05;;;12.20;99.90;;;;;;5115017;27;20066;-64
2021/12/28 01:58:32;;;;;;;12.60;8.35;;;12.10;99.90;;;;;;5125480;27;20497;-64
2021/12/28 02:01:00;;;;;;;11.60;7.90;;;12.10;99.90;;;;;;5084446;28;20555;-63
2021/12/28 02:03:30;;;;;;;11.23;8.05;;;12.10;99.90;;;;;;5094653;28;20059;-64
2021/12/28 02:05:58;;;;;;;12.90;6.78;;;12.10;99.90;;;;;;5071594;28;20047;-64
2021/12/28 02:08:25;;;;;;;17.10;7.80;;;12.20;99.90;;;;;;5070903;28;20091;-64
2021/12/28 02:10:55;;;;;;;11.98;7.15;;;12.20;99.90;;;;;;5092471;28;20429;-64
2021/12/28 02:13:24;;;;;;;11.82;8.02;;;12.20;99.90;;;;;;5070220;27;20054;-64
2021/12/28 02:15:53;;;;;;;11.23;7.18;;;12.20;99.90;;;;;;5104260;27;20088;-64
2021/12/28 02:18:22;;;;;;;8.95;6.95;;;12.30;99.90;;;;;;5085208;28;20133;-64
2021/12/28 02:20:51;;;;;;;9.95;8.27;;;12.20;99.90;;;;;;5105490;28;20063;-64
2021/12/28 02:23:19;;;;;;;12.35;8.18;;;12.10;99.90;;;;;;5090147;28;20478;-63
2021/12/28 02:25:47;;;;;;;15.20;8.13;;;12.10;99.90;;;;;;5078862;28;20051;-63
2021/12/28 02:28:16;;;;;;;12.85;8.20;;;12.20;99.90;;;;;;5080289;28;20044;-63
2021/12/28 02:30:46;;;;;;;11.27;8.55;;;12.30;99.90;;;;;;5115497;28;20063;-63
2021/12/28 02:33:14;;;;;;;16.23;8.18;;;12.20;99.90;;;;;;5080554;28;20081;-63
2021/12/28 02:35:42;;;;;;;16.27;8.18;;;12.20;99.90;;;;;;5080546;28;20050;-63
2021/12/28 02:38:11;;;;;;;13.82;8.60;;;12.30;99.90;;;;;;5115233;28;20511;-63
2021/12/28 02:40:42;;;;;;;13.63;8.48;;;12.30;99.90;;;;;;5114911;27;20362;-64
2021/12/28 02:43:13;;;;;;;17.15;8.23;;;12.30;99.90;;;;;;5100096;27;20374;-63
2021/12/28 02:45:49;;;;;;;12.30;8.10;;;12.30;99.90;;;;;;5135385;27;20075;-64
2021/12/28 02:48:17;;;;;;;15.77;8.70;;;12.30;99.90;;;;;;5083716;27;20055;-64
2021/12/28 02:50:51;;;;;;;13.23;9.05;;;12.20;99.90;;;;;;5101122;27;20035;-63
2021/12/28 02:53:19;;;;;;;16.73;9.45;;;12.20;99.90;;;;;;5083757;27;20497;-63
2021/12/28 02:55:48;;;;;;;17.48;8.60;;;12.10;99.90;;;;;;5117731;27;20050;-63
2021/12/28 02:58:33;;;;;;;12.70;9.00;;;12.10;99.90;;;;;;5100257;27;20035;-63
2021/12/28 03:01:19;;;;;;;18.83;10.10;;;12.10;99.90;;;;;;5083307;27;20209;-64
2021/12/28 03:03:50;;;;;;;14.38;8.80;;;12.10;99.90;;;;;;5117425;27;20046;-64
2021/12/28 03:06:20;;;;;;;16.48;9.55;;;12.20;99.90;;;;;;5116859;27;20051;-64
2021/12/28 03:08:54;;;;;;;13.70;9.07;;;12.10;99.90;;;;;;5100256;27;20123;-64
2021/12/28 03:11:23;;;;;;;17.23;9.68;;;12.20;99.90;;;;;;5117038;27;20499;-64
2021/12/28 03:13:54;;;;;;;16.10;8.63;;;12.20;99.90;;;;;;5117513;27;20046;-64
2021/12/28 03:16:23;;;;;;;16.60;9.10;;;12.20;99.90;;;;;;5100050;27;20130;-64
2021/12/28 03:18:51;;;;;;;16.35;8.35;;;12.20;99.90;;;;;;5117119;27;20450;-64
2021/12/28 03:21:20;;;;;;;14.52;7.70;;;12.20;99.90;;;;;;5116811;27;20085;-64
2021/12/28 03:23:49;;;;;;;14.43;7.22;;;12.30;99.90;;;;;;5100067;27;20046;-64
2021/12/28 03:26:17;;;;;;;12.45;8.00;;;12.30;99.90;;;;;;5099736;27;20496;-64
2021/12/28 03:28:45;;;;;;;15.68;8.20;;;12.30;99.90;;;;;;5117044;27;20503;-63
2021/12/28 03:31:15;;;;;;;15.70;7.20;;;12.30;99.90;;;;;;5100015;27;20104;-63
2021/12/28 03:33:46;;;;;;;8.80;6.20;;;12.30;99.90;;;;;;5099188;27;20054;-64
2021/12/28 03:36:16;;;;;;;15.27;7.53;;;12.30;99.90;;;;;;5099661;27;20397;-64
2021/12/28 03:38:44;;;;;;;14.80;7.63;;;12.30;99.90;;;;;;5134808;27;20045;-64
2021/12/28 03:41:14;;;;;;;11.77;6.72;;;12.20;99.90;;;;;;5099906;27;20477;-63
2021/12/28 03:43:44;;;;;;;11.73;6.88;;;12.30;99.90;;;;;;5116374;27;20473;-64
2021/12/28 03:46:12;;;;;;;16.20;8.15;;;12.20;99.90;;;;;;5134672;27;20572;-64
2021/12/28 03:48:40;;;;;;;12.02;8.23;;;12.20;99.90;;;;;;5099354;28;20074;-63
2021/12/28 03:51:09;;;;;;;12.18;8.43;;;12.30;99.90;;;;;;5134570;27;20121;-63
2021/12/28 03:53:37;;;;;;;14.90;7.65;;;12.30;99.90;;;;;;5134630;27;20066;-63
2021/12/28 03:56:07;;;;;;;17.55;9.82;;;12.30;99.90;;;;;;5116710;28;20039;-63
2021/12/28 03:58:38;;;;;;;12.27;7.72;;;12.30;99.90;;;;;;5134519;28;20072;-63
2021/12/28 04:01:07;;;;;;;13.13;8.10;;;12.30;99.90;;;;;;5099478;28;20051;-64
2021/12/28 04:03:34;;;;;;;13.48;8.00;;;12.40;99.90;;;;;;5099478;28;20127;-64
2021/12/28 04:06:07;;;;;;;12.45;8.15;;;12.40;99.90;;;;;;5116687;28;20039;-63
2021/12/28 04:08:41;;;;;;;10.82;7.43;;;12.50;99.90;;;;;;5099891;28;20134;-64
2021/12/28 04:11:25;;;;;;;16.92;8.45;;;12.50;99.90;;;;;;5082745;28;20047;-63
2021/12/28 04:14:01;;;;;;;17.20;9.43;;;12.40;99.90;;;;;;5082436;28;20386;-64
2021/12/28 04:16:30;;;;;;;12.60;7.25;;;12.50;99.90;;;;;;5116026;28;20089;-63
2021/12/28 04:18:59;;;;;;;14.07;7.82;;;12.60;99.90;;;;;;5134490;28;20044;-63
2021/12/28 04:21:27;;;;;;;20.10;8.73;;;12.50;99.90;;;;;;5116288;28;20035;-64
2021/12/28 04:23:54;;;;;;;13.27;7.32;;;12.50;99.90;;;;;;5099403;28;20053;-63
2021/12/28 04:26:25;;;;;;;13.55;7.80;;;12.50;99.90;;;;;;5116104;28;20039;-64
2021/12/28 04:28:52;;;;;;;11.82;7.43;;;12.50;99.90;;;;;;5082192;28;20089;-64
2021/12/28 04:31:20;;;;;;;9.52;6.22;;;12.50;99.90;;;;;;5099328;28;20041;-64
2021/12/28 04:33:48;;;;;;;9.95;6.32;;;12.40;99.90;;;;;;5116242;28;20050;-63
2021/12/28 04:36:16;;;;;;;12.52;7.93;;;12.50;99.90;;;;;;5115293;28;20485;-64
2021/12/28 04:38:44;;;;;;;12.32;6.25;;;12.50;99.90;;;;;;5098987;28;20481;-64
2021/12/28 04:41:13;;;;;;;10.55;6.07;;;12.50;99.90;;;;;;5115884;28;20501;-64
2021/12/28 04:43:40;;;;;;;16.20;7.40;;;12.50;99.90;;;;;;5099464;27;20469;-64
2021/12/28 04:46:08;;;;;;;16.52;6.45;;;12.50;99.90;;;;;;5120034;27;20039;-63
2021/12/28 04:48:36;;;;;;;14.88;7.07;;;12.40;99.90;;;;;;5120024;27;20047;-64
2021/12/28 04:51:04;;;;;;;9.43;5.75;;;12.40;99.90;;;;;;5137949;27;20051;-64
2021/12/28 04:53:31;;;;;;;9.35;4.90;;;12.50;99.90;;;;;;5119656;27;20043;-64
2021/12/28 04:56:00;;;;;;;9.48;4.93;;;12.50;99.90;;;;;;5102725;27;20074;-64
2021/12/28 04:58:27;;;;;;;9.73;4.75;;;12.50;99.90;;;;;;5137809;27;20039;-63
2021/12/28 05:00:56;;;;;;;6.90;4.03;;;12.50;99.90;;;;;;5137581;27;20047;-63
2021/12/28 05:03:25;;;;;;;4.68;3.58;;;12.60;99.90;;;;;;5085652;27;20131;-64
2021/12/28 05:05:53;;;;;;;4.88;3.50;;;12.60;99.90;;;;;;5085595;27;20043;-64
2021/12/28 05:08:22;;;;;;;6.10;4.20;;;12.70;99.90;;;;;;5119498;27;20049;-63
2021/12/28 05:10:51;;;;;;;13.20;5.63;;;12.70;99.90;;;;;;5137654;27;20078;-64
2021/12/28 05:13:19;;;;;;;10.38;6.07;;;12.70;99.90;;;;;;5137501;27;20040;-64
2021/12/28 05:15:48;;;;;;;10.32;4.95;;;12.80;99.90;;;;;;5119456;27;20078;-64
2021/12/28 05:18:17;;;;;;;7.28;4.65;;;12.80;99.90;;;;;;5119379;27;20130;-64
2021/12/28 05:20:45;;;;;;;9.25;4.70;;;12.80;99.90;;;;;;5102597;27;20479;-64
2021/12/28 05:23:13;;;;;;;6.65;4.70;;;12.90;99.90;;;;;;5102109;27;20047;-64
2021/12/28 05:25:40;;;;;;;7.93;4.55;;;12.90;99.90;;;;;;5102277;27;20096;-64
2021/12/28 05:28:08;;;;;;;9.07;5.20;;;12.90;99.90;;;;;;5137246;27;20404;-64
2021/12/28 05:30:36;;;;;;;8.05;5.20;;;12.80;99.90;;;;;;5119113;27;20042;-63
2021/12/28 05:33:05;;;;;;;12.38;6.82;;;12.80;99.90;;;;;;5119471;27;20145;-64
2021/12/28 05:35:33;;;;;;;8.85;5.07;;;12.80;99.90;;;;;;5137268;27;20483;-64
2021/12/28 05:38:01;;;;;;;20.90;7.03;;;12.70;99.90;;;;;;5118859;27;20093;-63
2021/12/28 05:40:28;;;;;;;14.20;8.57;;;12.70;99.90;;;;;;5118935;27;20049;-64
2021/12/28 05:42:56;;;;;;;12.68;7.55;;;12.70;99.90;;;;;;5101348;27;20437;-63
2021/12/28 05:45:24;;;;;;;15.55;7.53;;;12.70;99.90;;;;;;5118592;27;20050;-63
2021/12/28 05:47:51;;;;;;;13.40;7.07;;;12.80;99.90;;;;;;5084636;27;20113;-63
2021/12/28 05:50:19;;;;;;;24.27;8.60;;;12.80;99.90;;;;;;5136826;27;20408;-63
2021/12/28 05:52:47;;;;;;;14.85;8.13;;;12.90;99.90;;;;;;5101480;27;20141;-64
2021/12/28 05:55:14;;;;;;;24.15;8.30;;;12.90;99.90;;;;;;5136373;27;20039;-64
2021/12/28 05:57:42;;;;;;;16.23;7.90;;;12.80;99.90;;;;;;5101539;27;20039;-64
2021/12/28 06:00:11;;;;;;;20.23;9.57;;;12.70;99.90;;;;;;5136480;27;20074;-64
2021/12/28 06:02:39;;;;;;;17.63;7.80;;;12.60;99.90;;;;;;5118525;27;20039;-64
2021/12/28 06:05:07;;;;;;;15.50;7.13;;;12.60;99.90;;;;;;5084753;27;20055;-64
2021/12/28 06:07:35;;;;;;;18.40;6.60;;;12.60;99.90;;;;;;5084302;27;20039;-64
2021/12/28 06:10:04;;;;;;;26.63;7.43;;;12.60;99.90;;;;;;5118127;27;20489;-64
2021/12/28 06:12:32;;;;;;;17.90;5.93;;;12.70;99.90;;;;;;5118282;27;20474;-64
2021/12/28 06:15:00;;;;;;;11.95;5.25;;;12.60;99.90;;;;;;5118202;27;20039;-64
2021/12/28 06:17:29;;;;;;;14.82;5.90;;;12.60;99.90;;;;;;5101429;27;20133;-63
2021/12/28 06:19:56;;;;;;;13.13;5.97;;;12.60;99.90;;;;;;5127863;27;20043;-63
2021/12/28 06:22:24;;;;;;;11.88;5.28;;;12.70;99.90;;;;;;5100958;27;20055;-63
2021/12/28 06:24:52;;;;;;;20.73;7.93;;;12.60;99.90;;;;;;5117834;27;20043;-63
2021/12/28 06:27:20;;;;;;;12.80;7.93;;;12.70;99.90;;;;;;5117607;27;20043;-63
2021/12/28 06:29:47;;;;;;;13.63;6.57;;;12.70;99.90;;;;;;5117933;27;20401;-64
2021/12/28 06:32:15;;;;;;;18.08;6.45;;;12.70;99.90;;;;;;5117559;27;20078;-64
2021/12/28 06:34:42;;;;;;;9.50;4.43;;;12.70;99.90;;;;;;5100467;27;20051;-64
2021/12/28 06:37:10;;;;;;;10.68;5.13;;;12.70;99.90;;;;;;5117468;27;20035;-64
2021/12/28 06:39:38;;;;;;;14.90;5.82;;;12.50;99.90;;;;;;5117355;27;20031;-63
2021/12/28 06:42:05;;;;;;;13.35;5.88;;;12.50;99.90;;;;;;5117629;27;20044;-63
2021/12/28 06:44:33;;;;;;;10.40;6.20;;;12.40;99.90;;;;;;5100700;27;20086;-64
2021/12/28 06:47:01;;;;;;;16.98;7.30;;;12.50;99.90;;;;;;5135436;27;20046;-64
2021/12/28 06:49:28;;;;;;;21.73;7.85;;;12.40;99.90;;;;;;5100569;27;20111;-64
2021/12/28 06:51:56;;;;;;;13.45;7.20;;;12.50;99.90;;;;;;5127269;27;20043;-64
2021/12/28 06:54:24;;;;;;;15.27;7.82;;;12.60;99.90;;;;;;5135551;27;20393;-64
2021/12/28 06:56:51;;;;;;;14.68;7.45;;;12.60;99.90;;;;;;5117383;27;20039;-64
2021/12/28 06:59:19;;;;;;;20.40;8.20;;;12.70;99.90;;;;;;5135495;27;20039;-63
2021/12/28 07:01:47;;;;;;;29.17;6.93;;;12.80;99.90;;;;;;5083797;27;20493;-63
2021/12/28 07:04:14;;;;;;;9.90;4.78;;;12.80;99.90;;;;;;5135290;27;20047;-63
2021/12/28 07:06:42;;;;;;;16.20;5.53;;;12.90;99.90;;;;;;5099822;27;20039;-63
2021/12/28 07:09:10;;;;;;;25.80;6.63;;;12.80;99.90;;;;;;5116343;27;20031;-63
2021/12/28 07:11:37;;;;;;;25.80;7.43;;;12.80;99.90;;;;;;5135250;27;20475;-63
2021/12/28 07:14:05;;;;;;;22.27;8.65;;;12.90;99.90;;;;;;5117132;27;20126;-64
2021/12/28 07:16:32;;;;;;;18.67;9.65;;;13.00;99.90;;;;;;5099439;27;20128;-64
2021/12/28 07:19:00;;;;;;;16.00;10.18;;;13.00;99.90;;;;;;5117194;27;20044;-64
2021/12/28 07:21:27;;;;;;;15.95;8.77;;;13.10;99.90;;;;;;5117052;27;20039;-64
2021/12/28 07:23:55;;;;;;;15.77;8.75;;;13.20;99.90;;;;;;5134944;27;20452;-64
2021/12/28 07:26:23;;;;;;;13.43;7.35;;;13.20;99.90;;;;;;5099558;27;20039;-64
2021/12/28 07:28:51;;;;;;;11.07;8.10;;;13.30;99.90;;;;;;5116554;27;20103;-64
2021/12/28 07:31:18;;;;;;;10.70;7.53;;;13.40;99.90;;;;;;5116553;27;20046;-64
2021/12/28 07:33:46;;;;;;;11.75;6.68;;;13.50;99.90;;;;;;5116453;27;20493;-64
2021/12/28 07:36:13;;;;;;;24.42;9.07;;;13.60;99.90;;;;;;5099603;27;20130;-64
2021/12/28 07:38:41;;;;;;;9.88;6.75;;;13.80;99.90;;;;;;5134866;27;20070;-64
2021/12/28 07:41:09;;;;;;;23.33;11.30;;;13.90;99.90;;;;;;5099485;27;20046;-64
2021/12/28 07:43:36;;;;;;;16.00;9.05;;;14.10;99.90;;;;;;5116587;27;20051;-64
2021/12/28 07:46:04;;;;;;;14.45;6.18;;;14.20;99.90;;;;;;5116805;27;20039;-63
2021/12/28 07:48:32;;;;;;;19.17;4.82;;;14.50;99.90;;;;;;5116629;27;20529;-64
2021/12/28 07:50:59;;;;;;;17.00;4.00;;;14.50;99.90;;;;;;5116216;27;20035;-63
2021/12/28 07:53:27;;;;;;;5.90;4.65;;;14.70;99.90;;;;;;5099368;27;20043;-63
2021/12/28 07:55:57;;;;;;;9.70;4.47;;;14.90;99.90;;;;;;5134395;27;20489;-64
2021/12/28 07:58:25;;;;;;;6.68;4.57;;;15.30;99.90;;;;;;5115677;28;20050;-64
2021/12/28 08:00:53;;;;;;;7.47;5.80;;;15.70;99.90;;;;;;5116308;28;20050;-64
2021/12/28 08:03:22;;;;;;;12.13;5.10;;;16.10;99.90;;;;;;5099549;28;20473;-63
2021/12/28 08:05:51;;;;;;;10.02;4.13;;;16.40;99.90;;;;;;5094676;28;20069;-64
2021/12/28 08:08:19;;;;;;;5.05;3.88;;;16.50;99.90;;;;;;5089371;28;20039;-64
2021/12/28 08:10:47;;;;;;;6.85;4.30;;;16.50;99.90;;;;;;5079711;28;20032;-64
2021/12/28 08:13:16;;;;;;;6.03;4.45;;;16.30;99.90;;;;;;5076730;28;20498;-63
2021/12/28 08:15:44;;;;;;;7.95;4.28;;;16.30;99.90;;;;;;5094554;28;20039;-65
2021/12/28 08:18:12;;;;;;;7.88;5.22;;;16.30;99.90;;;;;;5084602;28;20113;-66
2021/12/28 08:20:40;;;;;;;10.73;5.05;;;16.20;99.90;;;;;;5090203;28;20039;-66
2021/12/28 08:23:08;;;;;;;6.93;4.65;;;16.30;99.90;;;;;;5083784;28;20159;-65
2021/12/28 08:25:35;;;;;;;8.90;4.97;;;16.20;99.90;;;;;;5117244;27;20112;-65
2021/12/28 08:28:05;;;;;;;9.95;4.40;;;16.20;99.90;;;;;;5119780;27;20478;-65
2021/12/28 08:30:38;;;;;;;10.50;4.80;;;16.30;99.90;;;;;;5102503;27;20497;-65
2021/12/28 08:33:09;;;;;;;12.77;8.07;;;16.40;99.90;;;;;;5085694;27;20562;-65
2021/12/28 08:35:39;;;;;;;17.10;9.13;;;16.30;99.90;;;;;;5120025;27;20039;-63
2021/12/28 08:38:10;;;;;;;16.27;11.27;;;16.30;99.90;;;;;;5086088;27;20488;-63
2021/12/28 08:40:40;;;;;;;19.17;11.80;;;16.20;99.90;;;;;;5119825;27;20040;-64
2021/12/28 08:43:08;;;;;;;16.25;11.05;;;16.10;99.90;;;;;;5138001;27;20058;-64
2021/12/28 08:45:37;;;;;;;18.52;11.07;;;16.10;99.90;;;;;;5119985;27;20131;-64
2021/12/28 08:48:05;;;;;;;15.57;9.90;;;16.10;99.90;;;;;;5119347;27;20067;-64
2021/12/28 08:50:35;;;;;;;11.82;7.07;;;16.10;99.90;;;;;;5137515;27;20146;-65
2021/12/28 08:53:03;;;;;;;11.23;7.50;;;16.10;99.90;;;;;;5119241;27;20042;-64
2021/12/28 08:55:32;;;;;;;11.45;7.07;;;16.10;99.90;;;;;;5085261;27;20066;-64
2021/12/28 08:58:00;;;;;;;12.32;7.78;;;16.10;99.90;;;;;;5119266;27;20062;-65
2021/12/28 09:00:30;;;;;;;11.70;8.15;;;16.20;99.90;;;;;;5119505;27;20043;-65
2021/12/28 09:02:59;;;;;;;13.13;9.45;;;16.20;99.90;;;;;;5119065;27;20084;-65
2021/12/28 09:05:28;;;;;;;14.02;9.45;;;15.90;99.90;;;;;;5119236;27;20040;-65
2021/12/28 09:07:57;;;;;;;15.13;9.55;;;16.10;99.90;;;;;;5119239;27;20426;-65
2021/12/28 09:10:25;;;;;;;14.60;7.97;;;16.20;99.90;;;;;;5085447;27;20710;-65
2021/12/28 09:12:54;;;;;;;10.30;6.88;;;16.30;99.90;;;;;;5118997;27;20477;-64
2021/12/28 09:15:22;;;;;;;10.40;5.82;;;16.50;99.90;;;;;;5084869;27;20051;-65
2021/12/28 09:17:50;;;;;;;6.97;5.47;;;16.50;99.90;;;;;;5102067;27;20104;-65
2021/12/28 09:20:20;;;;;;;12.02;5.07;;;16.40;99.90;;;;;;5119161;27;20043;-65
2021/12/28 09:23:02;;;;;;;8.65;5.40;;;16.20;99.90;;;;;;5104176;27;20531;-65
2021/12/28 09:25:30;;;;;;;9.23;6.22;;;16.10;99.90;;;;;;5119211;27;20119;-65
2021/12/28 09:27:59;;;;;;;11.52;5.90;;;16.20;99.90;;;;;;5118898;27;20047;-64
2021/12/28 09:30:27;;;;;;;8.82;5.50;;;16.30;99.90;;;;;;5100900;28;20043;-65
2021/12/28 09:32:55;;;;;;;11.00;5.78;;;16.20;99.90;;;;;;5118848;27;20051;-64
2021/12/28 09:35:22;;;;;;;10.98;5.25;;;16.20;99.90;;;;;;5101366;27;20065;-64
2021/12/28 09:37:50;;;;;;;8.77;4.78;;;16.30;99.90;;;;;;5118905;27;20043;-65
2021/12/28 09:40:18;;;;;;;8.30;4.80;;;16.20;99.90;;;;;;5118597;27;20091;-64
2021/12/28 09:42:46;;;;;;;8.75;5.05;;;16.20;99.90;;;;;;5118131;27;20055;-64
2021/12/28 09:45:14;;;;;;;13.25;5.85;;;16.30;99.90;;;;;;5117986;27;20050;-64
2021/12/28 09:47:43;;;;;;;9.60;4.85;;;16.40;99.90;;;;;;5101446;27;20043;-64
2021/12/28 09:50:15;;;;;;;10.60;4.65;;;16.50;99.90;;;;;;5118580;27;20039;-64
2021/12/28 09:52:45;;;;;;;8.25;5.15;;;16.50;99.90;;;;;;5136647;27;20053;-63
2021/12/28 09:55:16;;;;;;;12.40;5.60;;;16.40;99.90;;;;;;5118360;27;20046;-63
2021/12/28 09:57:45;;;;;;;7.82;4.57;;;16.30;99.90;;;;;;5101130;27;20043;-63
2021/12/28 10:00:14;;;;;;;9.50;5.47;;;16.20;99.90;;;;;;5118274;27;20043;-63
2021/12/28 10:02:49;;;;;;;10.53;4.50;;;16.20;99.90;;;;;;5117791;27;20039;-63
2021/12/28 10:05:24;;;;;;;9.38;4.75;;;16.20;99.90;;;;;;5083821;27;20054;-63
2021/12/28 10:07:59;;;;;;;6.15;4.57;;;16.30;99.90;;;;;;5100817;27;20047;-63
2021/12/28 10:10:55;;;;;;;8.10;4.20;;;16.50;99.90;;;;;;5117944;27;20051;-63
2021/12/28 10:13:29;;;;;;;9.70;5.32;;;16.60;99.90;;;;;;5116314;27;20367;-63
2021/12/28 10:15:56;;;;;;;8.10;5.40;;;16.60;99.90;;;;;;5135865;27;20050;-63
2021/12/28 10:18:24;;;;;;;8.90;4.05;;;16.80;99.90;;;;;;5135569;27;20050;-63
2021/12/28 10:20:58;;;;;;;6.82;4.00;;;17.00;99.90;;;;;;5100546;27;20062;-63
2021/12/28 10:23:28;;;;;;;7.30;4.40;;;17.00;99.90;;;;;;5135757;27;20043;-63
2021/12/28 10:26:01;;;;;;;8.63;4.50;;;17.00;99.90;;;;;;5117903;27;20377;-63
2021/12/28 10:28:38;;;;;;;11.38;5.32;;;17.00;99.90;;;;;;5135986;27;20130;-63
2021/12/28 10:31:09;;;;;;;8.73;4.65;;;17.20;99.90;;;;;;5117541;27;20054;-63
2021/12/28 10:33:39;;;;;;;9.20;4.53;;;17.30;99.90;;;;;;5135568;27;20043;-64
2021/12/28 10:36:13;;;;;;;8.32;4.05;;;17.30;99.90;;;;;;5117339;27;20035;-64
2021/12/28 10:38:50;;;;;;;6.68;3.95;;;17.40;99.90;;;;;;5135398;27;20112;-64
2021/12/28 10:41:20;;;;;;;6.75;4.00;;;17.50;99.90;;;;;;5099776;27;20057;-64
2021/12/28 10:43:50;;;;;;;5.45;3.25;;;17.60;99.90;;;;;;5135515;27;20096;-64
2021/12/28 10:46:22;;;;;;;6.15;4.07;;;17.40;99.90;;;;;;5117062;27;20046;-64
2021/12/28 10:48:54;;;;;;;8.10;4.45;;;17.10;99.90;;;;;;5117543;27;20075;-64
2021/12/28 10:51:28;;;;;;;13.50;6.35;;;16.90;99.90;;;;;;5135076;27;20043;-64
2021/12/28 10:56:28;;;;;;;8.40;3.83;;;16.70;99.90;;;;;;5135045;27;20084;-64
2021/12/28 10:58:56;;;;;;;11.55;5.25;;;16.70;99.90;;;;;;5100089;27;20089;-64
2021/12/28 11:01:26;;;;;;;6.53;4.00;;;16.80;99.90;;;;;;5116803;27;20388;-64
2021/12/28 11:03:56;;;;;;;9.18;3.60;;;16.90;99.90;;;;;;5099994;27;20054;-64
2021/12/28 11:06:26;;;;;;;8.05;3.42;;;17.10;99.90;;;;;;5134856;27;20043;-64
2021/12/28 11:08:57;;;;;;;6.93;3.22;;;17.20;99.90;;;;;;5116425;27;20562;-63
2021/12/28 11:11:27;;;;;;;9.95;3.63;;;17.30;99.90;;;;;;5134525;27;20042;-63
2021/12/28 11:14:01;;;;;;;6.97;3.85;;;17.40;99.90;;;;;;5116380;27;20043;-63
2021/12/28 11:16:31;;;;;;;9.13;4.53;;;17.50;99.90;;;;;;5134694;27;20043;-64
2021/12/28 11:19:04;;;;;;;5.05;3.28;;;17.60;99.90;;;;;;5082477;27;20054;-64
2021/12/28 11:21:36;;;;;;;8.45;3.47;;;17.80;99.90;;;;;;5116306;27;20096;-64
2021/12/28 11:24:10;;;;;;;7.13;3.17;;;18.00;99.90;;;;;;5100278;27;20389;-63
2021/12/28 11:26:42;;;;;;;8.15;3.35;;;18.00;99.90;;;;;;5116462;27;20051;-64
2021/12/28 11:29:22;;;;;;;9.98;3.55;;;17.90;99.90;;;;;;5116606;27;20066;-63
2021/12/28 11:31:50;;;;;;;6.93;3.88;;;17.80;99.90;;;;;;5134185;27;20051;-64
2021/12/28 11:34:26;;;;;;;6.13;3.88;;;17.80;99.90;;;;;;5099617;27;20528;-64
2021/12/28 11:36:58;;;;;;;6.07;4.38;;;17.80;99.90;;;;;;5134155;27;20466;-64
2021/12/28 11:39:29;;;;;;;5.95;3.63;;;17.70;99.90;;;;;;5134273;27;20046;-63
2021/12/28 11:41:58;;;;;;;5.95;3.65;;;17.60;99.90;;;;;;5115373;27;20491;-63
2021/12/28 11:44:27;;;;;;;5.05;3.17;;;17.50;99.90;;;;;;5098726;28;20128;-64
2021/12/28 11:46:56;;;;;;;8.10;3.65;;;17.50;99.90;;;;;;5098975;27;20401;-64
2021/12/28 11:49:28;;;;;;;8.05;3.83;;;17.40;99.90;;;;;;5116142;27;20039;-64
2021/12/28 11:51:58;;;;;;;6.43;4.22;;;17.30;99.90;;;;;;5134757;27;20046;-64
2021/12/28 11:54:29;;;;;;;7.55;4.65;;;17.30;99.90;;;;;;5098849;27;20133;-63
2021/12/28 11:57:01;;;;;;;12.75;6.25;;;17.20;99.90;;;;;;5116363;27;20054;-64
2021/12/28 11:59:29;;;;;;;11.20;6.60;;;17.10;99.90;;;;;;5134708;27;20085;-64
2021/12/28 12:02:05;;;;;;;12.13;6.78;;;17.10;99.90;;;;;;5098966;28;20039;-64
2021/12/28 12:04:33;;;;;;;11.45;6.60;;;17.10;99.90;;;;;;5099524;28;20050;-63
2021/12/28 12:07:17;;;;;;;10.82;6.60;;;17.00;99.90;;;;;;5099388;28;20438;-63
2021/12/28 12:09:52;;;;;;;10.60;6.60;;;17.00;99.90;;;;;;5099221;28;20176;-63
2021/12/28 12:12:28;;;;;;;13.32;8.50;;;17.00;99.90;;;;;;5116236;28;20035;-63
2021/12/28 12:14:58;;;;;;;10.30;6.63;;;16.90;99.90;;;;;;5116429;28;20035;-63
2021/12/28 12:20:03;;;;;;;16.17;8.65;;;16.80;99.90;;;;;;5116124;28;20035;-63
2021/12/28 12:22:40;;;;;;;12.57;8.13;;;16.80;99.90;;;;;;5134368;28;20133;-64
2021/12/28 12:25:13;;;;;;;13.13;10.20;;;16.70;99.90;;;;;;5115854;28;20069;-64
2021/12/28 12:27:57;;;;;;;16.55;11.13;;;16.70;99.90;;;;;;5081904;28;20073;-64
2021/12/28 12:30:24;;;;;;;12.38;7.55;;;16.70;99.90;;;;;;5134181;28;20485;-64
2021/12/28 12:32:58;;;;;;;12.52;8.65;;;16.60;99.90;;;;;;5098802;28;20065;-63
2021/12/28 12:35:32;;;;;;;10.55;7.53;;;16.60;99.90;;;;;;5116158;28;20057;-64
2021/12/28 12:38:24;;;;;;;16.88;9.98;;;16.60;99.90;;;;;;5116403;28;20051;-63
2021/12/28 12:40:59;;;;;;;25.30;18.23;;;16.50;99.90;;;;;;5115573;28;20043;-63
2021/12/28 12:43:26;;;;;;;31.55;19.92;;;16.50;99.90;;;;;;5115907;28;20527;-63
2021/12/28 12:46:10;;;;;;;20.05;14.00;;;16.50;99.90;;;;;;5115546;28;20070;-64
2021/12/28 12:48:39;;;;;;;17.45;11.07;;;16.50;99.90;;;;;;5115530;28;20074;-64
2021/12/28 12:51:26;;;;;;;14.35;9.55;;;16.50;99.90;;;;;;5098233;28;20059;-64
2021/12/28 12:54:22;;;;;;;13.85;9.35;;;16.50;99.90;;;;;;5115311;28;20485;-63
2021/12/28 12:56:54;;;;;;;16.55;11.27;;;16.40;99.90;;;;;;5133812;28;20039;-63
2021/12/28 12:59:24;;;;;;;19.65;10.50;;;16.40;99.90;;;;;;5115928;28;20088;-63
2021/12/28 13:01:51;;;;;;;18.15;8.80;;;16.40;99.90;;;;;;5115601;28;20397;-64